Time;durP1;ratioP1;P1;durP2;ratioP2;P2;SDS_P1;SDS_P2;PMS_P1;PMS_P2;Temp;Humidity;BMP_temperature;BMP_pressure;BME280_temperature;BME280_humidity;BME280_pressure;Samples;Min_cycle;Max_cycle;Signal;HPM_P1;HPM_P2
2022/03/25 00:01:31;;;;;;;28.05;15.65;;;;;;;;;;5031049;28;20037;-79
2022/03/25 00:03:57;;;;;;;26.27;15.85;;;;;;;;;;5042034;28;20036;-79
2022/03/25 00:06:23;;;;;;;28.10;16.17;;;;;;;;;;5040559;28;20040;-78
2022/03/25 00:08:48;;;;;;;26.13;15.30;;;;;;;;;;5024052;28;20034;-79
2022/03/25 00:11:14;;;;;;;25.95;15.27;;;;;;;;;;5040539;28;20055;-79
2022/03/25 00:13:40;;;;;;;26.92;15.85;;;;;;;;;;5029217;28;20037;-78
2022/03/25 00:16:06;;;;;;;23.73;14.70;;;;;;;;;;5028686;28;20057;-79
2022/03/25 00:18:32;;;;;;;26.77;16.27;;;;;;;;;;5040979;28;20041;-79
2022/03/25 00:20:58;;;;;;;26.58;15.90;;;;;;;;;;5026422;28;20037;-79
2022/03/25 00:23:23;;;;;;;27.02;16.60;;;;;;;;;;5029085;28;20041;-79
2022/03/25 00:25:48;;;;;;;28.98;15.70;;;;;;;;;;5029142;28;20048;-79
2022/03/25 00:28:13;;;;;;;29.30;16.88;;;;;;;;;;5033402;28;20036;-79
2022/03/25 00:30:39;;;;;;;29.42;16.65;;;;;;;;;;5040284;28;20090;-79
2022/03/25 00:33:05;;;;;;;29.80;16.95;;;;;;;;;;5042765;28;20484;-79
2022/03/25 00:35:31;;;;;;;25.77;15.65;;;;;;;;;;5028605;28;20126;-79
2022/03/25 00:37:58;;;;;;;29.75;16.08;;;;;;;;;;5029908;28;20396;-79
2022/03/25 00:40:23;;;;;;;30.45;16.52;;;;;;;;;;5026451;28;20044;-79
2022/03/25 00:42:49;;;;;;;26.75;15.95;;;;;;;;;;5030318;28;20040;-78
2022/03/25 00:45:14;;;;;;;31.30;16.42;;;;;;;;;;5029392;28;20060;-79
2022/03/25 00:47:40;;;;;;;27.65;16.80;;;;;;;;;;5040303;28;20033;-79
2022/03/25 00:50:06;;;;;;;31.23;17.05;;;;;;;;;;5023154;28;21011;-79
2022/03/25 00:52:31;;;;;;;27.52;16.65;;;;;;;;;;5040783;28;20146;-79
2022/03/25 00:54:57;;;;;;;29.20;16.13;;;;;;;;;;5029322;28;20052;-79
2022/03/25 00:57:23;;;;;;;28.00;16.13;;;;;;;;;;5029811;28;20040;-78
2022/03/25 00:59:48;;;;;;;27.30;15.82;;;;;;;;;;5029371;28;20040;-79
2022/03/25 01:02:16;;;;;;;28.98;16.58;;;;;;;;;;5026486;28;20048;-79
2022/03/25 01:04:41;;;;;;;27.13;16.13;;;;;;;;;;5029460;28;20029;-79
2022/03/25 01:07:07;;;;;;;30.48;16.48;;;;;;;;;;5026713;28;20049;-79
2022/03/25 01:09:32;;;;;;;26.52;15.30;;;;;;;;;;5018602;28;20400;-80
2022/03/25 01:11:58;;;;;;;25.63;16.33;;;;;;;;;;5039511;28;20397;-79
2022/03/25 01:14:23;;;;;;;25.95;16.00;;;;;;;;;;5029694;28;20060;-78
2022/03/25 01:16:48;;;;;;;29.00;16.40;;;;;;;;;;5021244;28;20037;-79
2022/03/25 01:19:14;;;;;;;26.38;15.48;;;;;;;;;;5044724;28;20946;-79
2022/03/25 01:21:39;;;;;;;27.20;15.88;;;;;;;;;;5040304;28;20045;-79
2022/03/25 01:24:05;;;;;;;25.80;16.45;;;;;;;;;;5025283;28;20064;-79
2022/03/25 01:26:31;;;;;;;26.83;16.42;;;;;;;;;;5041906;28;20053;-79
2022/03/25 01:28:56;;;;;;;28.45;16.45;;;;;;;;;;5031585;28;20383;-79
2022/03/25 01:31:22;;;;;;;25.40;15.15;;;;;;;;;;5029997;28;20453;-79
2022/03/25 01:33:47;;;;;;;30.10;15.73;;;;;;;;;;5034947;28;20025;-79
2022/03/25 01:36:12;;;;;;;26.33;16.63;;;;;;;;;;5030426;28;20111;-79
2022/03/25 01:38:38;;;;;;;25.08;15.48;;;;;;;;;;5028673;28;20033;-79
2022/03/25 01:41:03;;;;;;;25.23;14.88;;;;;;;;;;5033919;28;20110;-80
2022/03/25 01:43:29;;;;;;;29.92;14.73;;;;;;;;;;5032639;28;20046;-79
2022/03/25 01:45:54;;;;;;;27.75;15.15;;;;;;;;;;5048682;28;20424;-78
2022/03/25 01:48:21;;;;;;;23.83;14.40;;;;;;;;;;5033042;28;20124;-79
2022/03/25 01:50:47;;;;;;;23.27;14.85;;;;;;;;;;5033381;28;20033;-79
2022/03/25 01:53:18;;;;;;;28.92;16.17;;;;;;;;;;5046249;28;20068;-79
2022/03/25 01:55:56;;;;;;;28.75;15.40;;;;;;;;;;5034516;28;20111;-79
2022/03/25 01:58:22;;;;;;;26.17;15.95;;;;;;;;;;5044847;28;20417;-79
2022/03/25 02:03:23;;;;;;;22.30;14.52;;;;;;;;;;5678867;23;20061;-79
2022/03/25 02:05:49;;;;;;;25.77;15.45;;;;;;;;;;4949196;28;20034;-78
2022/03/25 02:08:17;;;;;;;28.02;16.90;;;;;;;;;;4952458;28;20124;-79
2022/03/25 02:10:43;;;;;;;26.85;15.90;;;;;;;;;;4949998;28;20921;-78
2022/03/25 02:13:09;;;;;;;28.20;16.10;;;;;;;;;;4946809;28;20054;-78
2022/03/25 02:15:37;;;;;;;26.13;15.32;;;;;;;;;;4962208;28;20038;-78
2022/03/25 02:18:08;;;;;;;28.02;15.05;;;;;;;;;;4948628;28;20034;-79
2022/03/25 02:20:34;;;;;;;27.23;15.75;;;;;;;;;;4945128;28;20054;-78
2022/03/25 02:23:00;;;;;;;23.70;15.15;;;;;;;;;;4947478;28;20043;-78
2022/03/25 02:25:26;;;;;;;24.75;14.88;;;;;;;;;;4961018;28;20516;-79
2022/03/25 02:27:52;;;;;;;26.33;15.57;;;;;;;;;;4946427;28;20040;-80
2022/03/25 02:30:18;;;;;;;25.23;14.90;;;;;;;;;;4971907;28;20043;-79
2022/03/25 02:32:43;;;;;;;29.70;16.52;;;;;;;;;;4969262;28;20086;-78
2022/03/25 02:35:10;;;;;;;26.92;15.98;;;;;;;;;;4955800;28;20050;-78
2022/03/25 02:37:35;;;;;;;25.30;15.25;;;;;;;;;;4964749;28;20130;-79
2022/03/25 02:40:01;;;;;;;25.52;15.10;;;;;;;;;;4963303;28;20513;-78
2022/03/25 02:42:26;;;;;;;28.90;15.57;;;;;;;;;;4966583;28;20389;-78
2022/03/25 02:44:52;;;;;;;25.10;14.98;;;;;;;;;;4964838;28;20043;-79
2022/03/25 02:47:17;;;;;;;23.40;14.52;;;;;;;;;;4959759;28;20050;-77
2022/03/25 02:49:43;;;;;;;27.92;16.13;;;;;;;;;;4950396;28;20090;-78
2022/03/25 02:52:08;;;;;;;23.98;15.18;;;;;;;;;;4962590;28;20057;-78
2022/03/25 02:54:36;;;;;;;22.67;14.40;;;;;;;;;;4947237;28;20043;-78
2022/03/25 02:57:02;;;;;;;25.90;15.05;;;;;;;;;;4963630;28;20038;-78
2022/03/25 02:59:28;;;;;;;25.00;15.07;;;;;;;;;;4951128;28;20085;-78
2022/03/25 03:01:53;;;;;;;26.80;15.77;;;;;;;;;;4946948;28;20034;-78
2022/03/25 03:04:18;;;;;;;26.13;15.77;;;;;;;;;;4949147;28;20122;-78
2022/03/25 03:06:44;;;;;;;28.10;15.60;;;;;;;;;;4961538;28;20141;-77
2022/03/25 03:09:10;;;;;;;29.55;15.80;;;;;;;;;;4950052;28;20039;-79
2022/03/25 03:11:36;;;;;;;27.55;15.30;;;;;;;;;;4949939;28;20043;-79
2022/03/25 03:14:02;;;;;;;25.27;16.48;;;;;;;;;;4956605;28;20122;-79
2022/03/25 03:16:27;;;;;;;28.92;15.70;;;;;;;;;;4946769;28;20045;-78
2022/03/25 03:18:52;;;;;;;25.10;15.73;;;;;;;;;;4956166;28;20042;-79
2022/03/25 03:21:18;;;;;;;26.42;16.23;;;;;;;;;;4960343;28;20150;-78
2022/03/25 03:23:43;;;;;;;27.10;15.57;;;;;;;;;;4945376;28;20482;-79
2022/03/25 03:26:09;;;;;;;26.60;15.90;;;;;;;;;;4965975;28;20098;-79
2022/03/25 03:28:34;;;;;;;28.02;17.35;;;;;;;;;;4950599;28;20043;-77
2022/03/25 03:30:59;;;;;;;28.77;16.77;;;;;;;;;;4949211;28;20054;-78
2022/03/25 03:33:25;;;;;;;28.27;16.95;;;;;;;;;;4945052;28;20121;-77
2022/03/25 03:35:50;;;;;;;25.10;16.05;;;;;;;;;;4961350;28;20494;-78
2022/03/25 03:38:15;;;;;;;29.73;17.35;;;;;;;;;;4966579;28;20082;-79
2022/03/25 03:40:41;;;;;;;27.55;16.67;;;;;;;;;;4965734;28;20097;-78
2022/03/25 03:43:06;;;;;;;30.27;16.77;;;;;;;;;;4948439;28;20035;-79
2022/03/25 03:45:32;;;;;;;29.55;15.77;;;;;;;;;;4949027;28;20101;-78
2022/03/25 03:47:57;;;;;;;28.05;15.75;;;;;;;;;;4963032;28;20126;-79
2022/03/25 03:50:24;;;;;;;31.42;17.20;;;;;;;;;;4944201;28;20132;-78
2022/03/25 03:52:49;;;;;;;30.83;16.52;;;;;;;;;;4949309;28;20035;-78
2022/03/25 03:55:14;;;;;;;29.85;16.65;;;;;;;;;;4965057;28;20051;-78
2022/03/25 03:57:40;;;;;;;32.10;17.10;;;;;;;;;;4962992;28;20035;-78
2022/03/25 04:00:10;;;;;;;28.48;16.98;;;;;;;;;;4944559;28;20045;-80
2022/03/25 04:02:36;;;;;;;29.35;16.88;;;;;;;;;;4963155;28;20054;-79
2022/03/25 04:05:01;;;;;;;27.65;16.42;;;;;;;;;;4947120;28;20043;-79
2022/03/25 04:07:26;;;;;;;29.10;17.35;;;;;;;;;;4965822;28;20049;-79
2022/03/25 04:09:52;;;;;;;28.40;16.92;;;;;;;;;;4956878;28;20485;-77
2022/03/25 04:12:17;;;;;;;32.22;18.00;;;;;;;;;;4949749;28;20046;-78
2022/03/25 04:14:43;;;;;;;31.25;17.77;;;;;;;;;;4949247;28;20035;-77
2022/03/25 04:17:08;;;;;;;33.45;16.88;;;;;;;;;;4945546;28;20042;-80
2022/03/25 04:19:33;;;;;;;32.30;17.75;;;;;;;;;;4962259;28;20439;-79
2022/03/25 04:21:59;;;;;;;29.90;17.33;;;;;;;;;;4944678;28;21037;-79
2022/03/25 04:24:24;;;;;;;30.77;17.45;;;;;;;;;;4949543;28;20075;-79
2022/03/25 04:26:49;;;;;;;32.30;18.80;;;;;;;;;;4947078;28;20390;-79
2022/03/25 04:29:15;;;;;;;32.35;17.58;;;;;;;;;;4950161;28;20061;-77
2022/03/25 04:31:40;;;;;;;32.15;18.50;;;;;;;;;;4946062;28;20570;-78
2022/03/25 04:34:05;;;;;;;31.70;18.80;;;;;;;;;;4959049;28;20454;-79
2022/03/25 04:36:31;;;;;;;30.67;17.98;;;;;;;;;;4943742;28;20502;-78
2022/03/25 04:38:56;;;;;;;30.58;18.00;;;;;;;;;;4953322;28;20047;-79
2022/03/25 04:41:22;;;;;;;31.45;19.10;;;;;;;;;;4957230;28;20049;-78
2022/03/25 04:43:48;;;;;;;33.97;19.00;;;;;;;;;;4963752;28;20039;-79
2022/03/25 04:46:13;;;;;;;34.33;19.17;;;;;;;;;;4945343;28;20042;-78
2022/03/25 04:48:39;;;;;;;29.17;18.35;;;;;;;;;;4960085;28;20039;-79
2022/03/25 04:51:05;;;;;;;32.42;19.55;;;;;;;;;;4946722;28;20124;-80
2022/03/25 04:53:30;;;;;;;35.45;19.05;;;;;;;;;;4959389;28;20581;-79
2022/03/25 04:55:55;;;;;;;33.05;19.45;;;;;;;;;;4946310;28;20046;-79
2022/03/25 04:58:21;;;;;;;35.67;19.05;;;;;;;;;;4943950;28;20118;-79
2022/03/25 05:00:47;;;;;;;34.13;19.50;;;;;;;;;;4960222;28;20038;-78
2022/03/25 05:03:12;;;;;;;34.40;19.42;;;;;;;;;;4946716;28;20057;-79
2022/03/25 05:05:42;;;;;;;33.53;20.08;;;;;;;;;;4958984;28;20070;-78
2022/03/25 05:08:08;;;;;;;38.47;19.85;;;;;;;;;;4945422;28;20035;-78
2022/03/25 05:10:34;;;;;;;34.58;20.15;;;;;;;;;;4942463;28;20043;-79
2022/03/25 05:12:59;;;;;;;32.67;20.27;;;;;;;;;;4947378;28;20039;-78
2022/03/25 05:15:25;;;;;;;34.55;19.55;;;;;;;;;;4943107;28;20502;-79
2022/03/25 05:17:51;;;;;;;33.40;19.85;;;;;;;;;;4943291;28;20490;-78
2022/03/25 05:20:18;;;;;;;33.28;19.55;;;;;;;;;;4945857;28;20163;-78
2022/03/25 05:22:44;;;;;;;33.95;19.73;;;;;;;;;;4969874;28;20474;-78
2022/03/25 05:25:09;;;;;;;36.38;19.35;;;;;;;;;;4943991;28;20050;-78
2022/03/25 05:27:49;;;;;;;33.47;19.20;;;;;;;;;;4962464;28;20047;-77
2022/03/25 05:30:15;;;;;;;34.17;19.65;;;;;;;;;;4963119;28;20723;-78
2022/03/25 05:32:42;;;;;;;33.25;19.95;;;;;;;;;;4944026;28;20031;-78
2022/03/25 05:35:09;;;;;;;33.15;19.45;;;;;;;;;;4951521;28;20031;-78
2022/03/25 05:37:35;;;;;;;36.45;20.15;;;;;;;;;;4965490;28;20031;-78
2022/03/25 05:40:00;;;;;;;31.88;19.65;;;;;;;;;;4940921;28;20098;-78
2022/03/25 05:42:26;;;;;;;34.85;20.02;;;;;;;;;;4944882;28;20039;-79
2022/03/25 05:44:51;;;;;;;34.17;19.17;;;;;;;;;;4953157;28;20035;-78
2022/03/25 05:47:17;;;;;;;31.25;19.08;;;;;;;;;;4949206;28;20476;-77
2022/03/25 05:49:42;;;;;;;31.50;19.35;;;;;;;;;;4945805;28;20050;-78
2022/03/25 05:52:08;;;;;;;30.58;18.73;;;;;;;;;;4950081;28;20097;-78
2022/03/25 05:54:33;;;;;;;28.63;18.00;;;;;;;;;;4964880;28;20382;-78
2022/03/25 05:56:58;;;;;;;33.15;18.83;;;;;;;;;;4963379;28;20034;-77
2022/03/25 05:59:23;;;;;;;33.83;19.55;;;;;;;;;;4959220;28;20047;-78
2022/03/25 06:01:49;;;;;;;37.97;19.00;;;;;;;;;;4944008;28;20247;-77
2022/03/25 06:04:14;;;;;;;30.40;18.25;;;;;;;;;;4961036;28;20113;-78
2022/03/25 06:06:40;;;;;;;35.67;19.30;;;;;;;;;;4941313;28;20041;-77
2022/03/25 06:09:05;;;;;;;34.30;19.10;;;;;;;;;;4953487;28;20102;-78
2022/03/25 06:11:31;;;;;;;34.67;19.85;;;;;;;;;;4955534;28;20051;-78
2022/03/25 06:13:56;;;;;;;34.88;18.88;;;;;;;;;;4963715;28;20031;-78
2022/03/25 06:16:21;;;;;;;33.35;18.40;;;;;;;;;;4950533;28;20401;-78
2022/03/25 06:18:47;;;;;;;39.55;19.40;;;;;;;;;;4966606;28;20035;-79
2022/03/25 06:21:12;;;;;;;31.58;19.20;;;;;;;;;;4959562;28;20063;-78
2022/03/25 06:23:38;;;;;;;35.20;19.80;;;;;;;;;;4965343;28;20058;-77
2022/03/25 06:26:05;;;;;;;32.65;18.88;;;;;;;;;;4959777;28;20039;-78
2022/03/25 06:28:31;;;;;;;31.33;18.88;;;;;;;;;;4948888;28;20042;-78
2022/03/25 06:30:56;;;;;;;31.25;18.88;;;;;;;;;;4948326;28;20039;-79
2022/03/25 06:33:22;;;;;;;34.13;18.42;;;;;;;;;;4966549;28;20054;-77
2022/03/25 06:35:47;;;;;;;35.33;19.13;;;;;;;;;;4946015;28;20127;-76
2022/03/25 06:38:13;;;;;;;32.25;17.75;;;;;;;;;;4958983;28;20065;-77
2022/03/25 06:40:38;;;;;;;37.90;18.00;;;;;;;;;;4952281;28;20035;-77
2022/03/25 06:43:05;;;;;;;31.85;18.75;;;;;;;;;;4960153;28;20073;-77
2022/03/25 06:45:31;;;;;;;31.63;18.27;;;;;;;;;;4964364;28;20433;-79
2022/03/25 06:47:57;;;;;;;33.13;18.63;;;;;;;;;;4949404;28;20031;-78
2022/03/25 06:50:24;;;;;;;32.40;17.83;;;;;;;;;;4961665;28;20053;-77
2022/03/25 06:52:49;;;;;;;28.70;17.38;;;;;;;;;;4950957;28;20110;-78
2022/03/25 06:55:15;;;;;;;33.40;18.58;;;;;;;;;;4963526;28;20130;-78
2022/03/25 06:57:41;;;;;;;29.75;18.58;;;;;;;;;;4957436;28;20132;-78
2022/03/25 07:00:12;;;;;;;34.58;18.95;;;;;;;;;;4945448;28;20236;-79
2022/03/25 07:02:41;;;;;;;36.65;18.65;;;;;;;;;;4960237;28;20039;-77
2022/03/25 07:05:08;;;;;;;32.85;18.13;;;;;;;;;;4963970;28;20043;-78
2022/03/25 07:07:36;;;;;;;30.30;17.45;;;;;;;;;;4959722;28;20050;-79
2022/03/25 07:10:02;;;;;;;;;;;;;;;;;;4952259;28;20038;-77
2022/03/25 07:12:27;;;;;;;31.40;18.05;;;;;;;;;;4944162;28;19925;-78
2022/03/25 07:14:53;;;;;;;34.13;18.48;;;;;;;;;;4960870;28;20038;-78
2022/03/25 07:17:20;;;;;;;33.70;18.02;;;;;;;;;;4949414;28;20038;-79
2022/03/25 07:19:45;;;;;;;31.88;18.33;;;;;;;;;;4949937;28;20034;-79
2022/03/25 07:22:11;;;;;;;29.95;18.10;;;;;;;;;;4959800;28;20125;-79
2022/03/25 07:24:36;;;;;;;32.20;18.40;;;;;;;;;;4950717;28;20394;-79
2022/03/25 07:27:02;;;;;;;30.60;18.83;;;;;;;;;;4963689;28;20078;-79
2022/03/25 07:29:36;;;;;;;34.20;19.05;;;;;;;;;;4965662;28;20520;-80
2022/03/25 07:32:02;;;;;;;32.83;18.30;;;;;;;;;;4960140;28;20038;-79
2022/03/25 07:34:27;;;;;;;35.20;18.88;;;;;;;;;;4947108;28;20116;-78
2022/03/25 07:36:53;;;;;;;26.60;17.45;;;;;;;;;;4947532;28;20058;-78
2022/03/25 07:39:18;;;;;;;30.10;18.73;;;;;;;;;;4947158;28;20054;-79
2022/03/25 07:41:46;;;;;;;30.42;18.60;;;;;;;;;;4945018;28;20054;-79
2022/03/25 07:44:11;;;;;;;29.90;18.15;;;;;;;;;;4960512;28;20117;-79
2022/03/25 07:46:37;;;;;;;36.30;19.13;;;;;;;;;;4947450;28;20409;-79
2022/03/25 07:49:02;;;;;;;31.40;18.35;;;;;;;;;;4948215;28;20043;-78
2022/03/25 07:51:27;;;;;;;30.23;18.33;;;;;;;;;;4960093;28;20042;-79
2022/03/25 07:53:53;;;;;;;31.42;18.60;;;;;;;;;;4951529;28;20043;-78
2022/03/25 07:56:18;;;;;;;29.02;18.55;;;;;;;;;;4961756;28;20058;-77
2022/03/25 07:58:43;;;;;;;30.33;18.17;;;;;;;;;;4948531;28;20038;-79
2022/03/25 08:01:09;;;;;;;31.05;19.10;;;;;;;;;;4948824;28;20402;-79
2022/03/25 08:03:34;;;;;;;30.33;18.05;;;;;;;;;;4962442;28;20743;-78
2022/03/25 08:06:00;;;;;;;28.85;17.05;;;;;;;;;;4964139;28;20434;-77
2022/03/25 08:08:25;;;;;;;31.27;18.27;;;;;;;;;;4965596;28;20043;-78
2022/03/25 08:10:55;;;;;;;30.48;18.63;;;;;;;;;;4943652;28;20720;-78
2022/03/25 08:13:21;;;;;;;33.67;18.40;;;;;;;;;;4950130;28;20127;-77
2022/03/25 08:15:46;;;;;;;29.90;18.52;;;;;;;;;;4963776;28;20165;-77
2022/03/25 08:18:13;;;;;;;29.42;18.77;;;;;;;;;;4961283;28;20415;-81
2022/03/25 08:20:43;;;;;;;31.23;18.30;;;;;;;;;;4947604;28;20041;-82
2022/03/25 08:23:11;;;;;;;31.88;18.25;;;;;;;;;;4972995;28;20057;-81
2022/03/25 08:28:21;;;;;;;30.27;18.33;;;;;;;;;;4956780;28;20053;-77
2022/03/25 08:30:50;;;;;;;29.23;17.92;;;;;;;;;;4945425;28;20047;-77
2022/03/25 08:33:15;;;;;;;32.30;18.52;;;;;;;;;;4958210;28;20058;-78
2022/03/25 08:35:41;;;;;;;27.98;17.60;;;;;;;;;;4958893;28;20027;-80
2022/03/25 08:38:08;;;;;;;31.83;19.05;;;;;;;;;;4941668;28;20027;-78
2022/03/25 08:40:34;;;;;;;29.92;18.42;;;;;;;;;;4959289;28;20435;-78
2022/03/25 08:43:01;;;;;;;34.70;19.90;;;;;;;;;;4961098;28;20477;-77
2022/03/25 08:45:27;;;;;;;31.50;19.58;;;;;;;;;;4943547;28;20031;-78
2022/03/25 08:47:52;;;;;;;31.17;19.92;;;;;;;;;;4962361;28;20039;-79
2022/03/25 08:50:19;;;;;;;33.38;19.40;;;;;;;;;;4947704;28;20042;-79
2022/03/25 08:52:45;;;;;;;32.53;20.70;;;;;;;;;;4950814;28;20567;-79
2022/03/25 08:55:12;;;;;;;31.77;19.63;;;;;;;;;;4954845;28;20031;-80
2022/03/25 08:57:38;;;;;;;30.58;19.45;;;;;;;;;;4958973;28;20118;-78
2022/03/25 09:00:06;;;;;;;32.88;19.65;;;;;;;;;;4948888;28;20035;-79
2022/03/25 09:02:32;;;;;;;30.95;20.75;;;;;;;;;;4944372;28;20037;-78
2022/03/25 09:04:57;;;;;;;30.50;19.90;;;;;;;;;;4943184;28;20031;-78
2022/03/25 09:07:22;;;;;;;31.38;21.15;;;;;;;;;;4951219;28;20082;-79
2022/03/25 09:09:48;;;;;;;31.05;20.88;;;;;;;;;;4946352;28;20035;-80
2022/03/25 09:12:13;;;;;;;28.73;21.52;;;;;;;;;;4958491;28;20049;-77
2022/03/25 09:14:39;;;;;;;30.05;22.15;;;;;;;;;;4942011;28;20050;-80
2022/03/25 09:17:05;;;;;;;31.48;22.55;;;;;;;;;;4947840;28;20050;-79
2022/03/25 09:19:30;;;;;;;30.52;22.40;;;;;;;;;;4960183;28;20051;-79
2022/03/25 09:21:55;;;;;;;30.88;22.65;;;;;;;;;;4944176;28;20031;-79
2022/03/25 09:24:21;;;;;;;35.10;22.95;;;;;;;;;;4947388;28;20043;-80
2022/03/25 09:26:46;;;;;;;32.55;22.63;;;;;;;;;;4959333;28;20074;-79
2022/03/25 09:29:11;;;;;;;29.55;22.02;;;;;;;;;;4956455;28;20097;-79
2022/03/25 09:31:38;;;;;;;32.85;23.10;;;;;;;;;;4943636;28;20046;-79
2022/03/25 09:36:47;;;;;;;30.20;22.55;;;;;;;;;;4964004;28;20042;-79
2022/03/25 09:39:12;;;;;;;30.77;22.63;;;;;;;;;;4948548;28;20047;-79
2022/03/25 09:41:38;;;;;;;30.70;22.50;;;;;;;;;;4946206;28;20864;-79
2022/03/25 09:44:03;;;;;;;34.20;23.40;;;;;;;;;;4962762;28;20051;-79
2022/03/25 09:46:29;;;;;;;30.08;23.65;;;;;;;;;;4963054;28;20069;-78
2022/03/25 09:48:55;;;;;;;29.40;23.23;;;;;;;;;;4962981;28;20043;-80
2022/03/25 09:51:20;;;;;;;31.55;23.02;;;;;;;;;;4954774;28;20031;-80
2022/03/25 09:53:47;;;;;;;37.60;23.33;;;;;;;;;;4949690;28;20042;-79
2022/03/25 09:56:14;;;;;;;36.30;24.60;;;;;;;;;;4974943;28;20038;-79
2022/03/25 09:58:39;;;;;;;35.33;22.93;;;;;;;;;;4951006;28;20555;-78
2022/03/25 10:01:04;;;;;;;33.78;23.65;;;;;;;;;;4966670;28;20114;-78
2022/03/25 10:03:37;;;;;;;37.55;24.35;;;;;;;;;;4949469;28;20433;-78
2022/03/25 10:06:04;;;;;;;37.70;24.15;;;;;;;;;;4949280;28;20054;-78
2022/03/25 10:08:30;;;;;;;;;;;;;;;;;;4948286;28;20049;-79
2022/03/25 10:10:56;;;;;;;39.13;24.55;;;;;;;;;;4944875;28;20381;-78
2022/03/25 10:13:21;;;;;;;38.85;23.48;;;;;;;;;;4962551;28;20054;-78
2022/03/25 10:15:46;;;;;;;38.97;25.50;;;;;;;;;;4966863;28;20101;-79
2022/03/25 10:18:12;;;;;;;37.80;24.48;;;;;;;;;;4951554;28;20031;-79
2022/03/25 10:20:41;;;;;;;39.42;25.35;;;;;;;;;;4962952;28;20126;-79
2022/03/25 10:23:07;;;;;;;44.47;25.38;;;;;;;;;;4951896;28;20434;-81
2022/03/25 10:25:41;;;;;;;35.58;24.70;;;;;;;;;;4964235;28;20041;-80
2022/03/25 10:28:24;;;;;;;36.60;24.30;;;;;;;;;;4978724;28;21972;-78
2022/03/25 10:30:51;;;;;;;37.53;25.52;;;;;;;;;;4976615;28;20041;-78
2022/03/25 10:33:31;;;;;;;38.20;25.50;;;;;;;;;;4965305;28;20118;-80
2022/03/25 10:36:07;;;;;;;33.65;22.88;;;;;;;;;;4947967;28;20046;-78
2022/03/25 10:38:54;;;;;;;39.88;25.40;;;;;;;;;;4942384;28;20070;-78
2022/03/25 10:41:22;;;;;;;38.92;26.77;;;;;;;;;;4949120;28;20047;-80
2022/03/25 10:44:05;;;;;;;38.13;26.27;;;;;;;;;;4941788;28;20046;-79
2022/03/25 10:46:35;;;;;;;40.95;26.20;;;;;;;;;;4943120;28;20123;-80
2022/03/25 10:49:03;;;;;;;37.78;26.40;;;;;;;;;;4956436;28;20076;-79
2022/03/25 10:51:28;;;;;;;41.13;26.65;;;;;;;;;;4962192;28;20145;-79
2022/03/25 10:53:59;;;;;;;39.63;26.80;;;;;;;;;;4951022;28;20109;-80
2022/03/25 10:56:28;;;;;;;38.03;26.08;;;;;;;;;;4954350;28;20133;-81
2022/03/25 10:58:55;;;;;;;31.92;24.65;;;;;;;;;;4949443;28;20394;-80
2022/03/25 11:01:20;;;;;;;;;;;;;;;;;;4948781;28;20039;-80
2022/03/25 11:03:49;;;;;;;36.65;23.75;;;;;;;;;;4961672;28;20292;-80
2022/03/25 11:06:15;;;;;;;34.28;21.38;;;;;;;;;;4950873;28;20111;-79
2022/03/25 11:08:41;;;;;;;32.33;22.10;;;;;;;;;;4971619;28;20031;-80
2022/03/25 11:11:08;;;;;;;32.83;23.05;;;;;;;;;;4949595;28;20517;-79
2022/03/25 11:13:34;;;;;;;31.13;21.30;;;;;;;;;;4948013;28;20070;-79
2022/03/25 11:16:02;;;;;;;29.25;20.77;;;;;;;;;;4944481;28;20066;-80
2022/03/25 11:18:28;;;;;;;28.70;19.13;;;;;;;;;;4963595;28;20055;-79
2022/03/25 11:20:58;;;;;;;30.58;20.15;;;;;;;;;;4965436;28;20031;-79
2022/03/25 11:23:27;;;;;;;30.42;20.92;;;;;;;;;;4949833;28;20053;-79
2022/03/25 11:25:55;;;;;;;27.33;19.27;;;;;;;;;;4961904;28;20046;-80
2022/03/25 11:28:29;;;;;;;27.85;19.75;;;;;;;;;;4972120;28;20525;-80
2022/03/25 11:31:01;;;;;;;29.15;19.45;;;;;;;;;;4961218;28;20031;-79
2022/03/25 11:33:28;;;;;;;27.75;20.02;;;;;;;;;;4948987;28;20039;-80
2022/03/25 11:36:15;;;;;;;25.52;18.88;;;;;;;;;;4959840;28;20038;-79
2022/03/25 11:38:40;;;;;;;;;;;;;;;;;;4950275;28;20078;-79
2022/03/25 11:41:24;;;;;;;24.83;17.95;;;;;;;;;;4947497;28;19997;-81
2022/03/25 11:44:14;;;;;;;28.92;19.80;;;;;;;;;;4945282;28;20096;-80
2022/03/25 11:46:58;;;;;;;26.95;19.05;;;;;;;;;;4978453;28;20043;-80
2022/03/25 11:49:23;;;;;;;25.58;20.02;;;;;;;;;;4962172;28;20505;-80
2022/03/25 11:51:48;;;;;;;26.08;19.23;;;;;;;;;;4961786;28;20042;-81
2022/03/25 11:54:43;;;;;;;26.42;19.27;;;;;;;;;;4953885;28;20093;-80
2022/03/25 11:57:23;;;;;;;28.42;19.67;;;;;;;;;;4925595;28;20049;-79
2022/03/25 11:59:54;;;;;;;24.65;18.63;;;;;;;;;;4945945;28;20043;-78
2022/03/25 12:02:23;;;;;;;25.80;18.13;;;;;;;;;;4946385;28;20402;-80
2022/03/25 12:04:48;;;;;;;27.73;19.05;;;;;;;;;;4947969;28;20039;-79
2022/03/25 12:07:16;;;;;;;27.95;20.48;;;;;;;;;;4961715;28;20094;-79
2022/03/25 12:09:43;;;;;;;28.55;19.55;;;;;;;;;;4948719;28;20497;-79
2022/03/25 12:12:09;;;;;;;28.10;19.50;;;;;;;;;;4941777;28;20482;-79
2022/03/25 12:14:36;;;;;;;31.50;19.33;;;;;;;;;;4952547;28;20039;-79
2022/03/25 12:17:09;;;;;;;27.90;18.50;;;;;;;;;;4964380;28;20050;-79
2022/03/25 12:19:41;;;;;;;26.55;18.35;;;;;;;;;;4960866;28;20047;-79
2022/03/25 12:22:18;;;;;;;29.13;18.52;;;;;;;;;;4961689;28;20047;-78
2022/03/25 12:24:43;;;;;;;27.50;17.90;;;;;;;;;;4971405;28;20126;-80
2022/03/25 12:27:09;;;;;;;24.27;15.30;;;;;;;;;;4953943;28;20422;-80
2022/03/25 12:29:40;;;;;;;21.88;14.55;;;;;;;;;;4948288;28;20569;-79
2022/03/25 12:32:10;;;;;;;25.38;14.40;;;;;;;;;;4938883;28;20548;-80
2022/03/25 12:34:58;;;;;;;23.23;14.55;;;;;;;;;;4961718;28;20083;-79
2022/03/25 12:37:48;;;;;;;29.60;15.18;;;;;;;;;;4950707;28;20491;-79
2022/03/25 12:40:15;;;;;;;23.13;15.05;;;;;;;;;;4938594;28;20372;-79
2022/03/25 12:42:40;;;;;;;24.10;15.40;;;;;;;;;;4959044;28;20038;-77
2022/03/25 12:45:06;;;;;;;26.92;16.25;;;;;;;;;;4949971;28;20031;-78
2022/03/25 12:47:34;;;;;;;23.98;15.20;;;;;;;;;;4948924;28;20038;-78
2022/03/25 12:50:00;;;;;;;22.60;15.68;;;;;;;;;;4957931;28;20437;-77
2022/03/25 12:52:26;;;;;;;28.38;16.05;;;;;;;;;;4944284;28;20363;-77
2022/03/25 12:54:53;;;;;;;24.40;13.70;;;;;;;;;;4959589;28;20035;-78
2022/03/25 12:57:29;;;;;;;23.83;12.73;;;;;;;;;;4955446;28;20098;-77
2022/03/25 12:59:57;;;;;;;21.42;12.55;;;;;;;;;;4946528;28;20174;-78
2022/03/25 13:02:29;;;;;;;26.08;12.50;;;;;;;;;;4948112;28;20042;-79
2022/03/25 13:05:10;;;;;;;47.00;17.50;;;;;;;;;;4960303;28;20120;-79
2022/03/25 13:07:36;;;;;;;28.13;14.02;;;;;;;;;;4962454;28;20371;-79
2022/03/25 13:10:02;;;;;;;25.20;13.35;;;;;;;;;;4962995;28;20042;-80
2022/03/25 13:12:32;;;;;;;20.55;12.88;;;;;;;;;;4945262;28;20335;-79
2022/03/25 13:14:57;;;;;;;21.30;12.43;;;;;;;;;;4963285;28;20035;-79
2022/03/25 13:17:41;;;;;;;20.90;11.63;;;;;;;;;;4946034;28;20038;-79
2022/03/25 13:20:28;;;;;;;22.52;13.02;;;;;;;;;;4960492;28;20043;-80
2022/03/25 13:22:54;;;;;;;21.77;12.80;;;;;;;;;;4959266;28;20430;-77
2022/03/25 13:25:31;;;;;;;25.35;12.43;;;;;;;;;;4962646;28;20045;-77
2022/03/25 13:27:58;;;;;;;27.73;12.30;;;;;;;;;;4961938;28;20142;-79
2022/03/25 13:30:23;;;;;;;19.95;11.35;;;;;;;;;;4950414;28;20042;-78
2022/03/25 13:33:04;;;;;;;20.65;10.57;;;;;;;;;;4968096;28;20027;-79
2022/03/25 13:35:32;;;;;;;20.40;10.57;;;;;;;;;;4963448;28;20038;-77
2022/03/25 13:37:59;;;;;;;15.77;9.75;;;;;;;;;;4965088;28;20031;-78
2022/03/25 13:40:35;;;;;;;16.25;9.48;;;;;;;;;;4947165;28;20127;-78
2022/03/25 13:43:01;;;;;;;18.05;9.52;;;;;;;;;;4950537;28;20035;-78
2022/03/25 13:45:27;;;;;;;17.58;9.43;;;;;;;;;;4948387;28;20510;-78
2022/03/25 13:48:04;;;;;;;16.40;9.63;;;;;;;;;;4963391;28;20122;-77
2022/03/25 13:50:30;;;;;;;20.52;10.18;;;;;;;;;;4947953;28;20565;-79
2022/03/25 13:52:59;;;;;;;18.35;9.98;;;;;;;;;;4947736;28;20062;-79
2022/03/25 13:55:33;;;;;;;16.48;9.90;;;;;;;;;;4948708;28;20058;-77
2022/03/25 13:57:59;;;;;;;20.33;10.65;;;;;;;;;;4961445;28;20065;-78
2022/03/25 14:00:52;;;;;;;24.30;11.52;;;;;;;;;;4943795;28;20066;-78
2022/03/25 14:03:18;;;;;;;21.08;10.90;;;;;;;;;;4963577;28;20476;-78
2022/03/25 14:05:43;;;;;;;19.95;11.00;;;;;;;;;;4963738;28;20133;-79
2022/03/25 14:08:10;;;;;;;22.13;11.63;;;;;;;;;;4946454;28;22061;-78
2022/03/25 14:10:37;;;;;;;22.05;13.63;;;;;;;;;;4962636;28;20097;-77
2022/03/25 14:13:06;;;;;;;25.73;13.23;;;;;;;;;;4947859;28;20027;-78
2022/03/25 14:15:32;;;;;;;22.13;13.68;;;;;;;;;;4963423;28;20031;-79
2022/03/25 14:17:58;;;;;;;23.42;14.27;;;;;;;;;;4951049;28;20485;-76
2022/03/25 14:20:29;;;;;;;22.95;13.85;;;;;;;;;;4962909;28;20077;-78
2022/03/25 14:22:58;;;;;;;23.13;13.45;;;;;;;;;;4964660;28;20059;-77
2022/03/25 14:25:32;;;;;;;26.52;13.10;;;;;;;;;;4961037;28;20109;-78
2022/03/25 14:28:05;;;;;;;21.50;12.75;;;;;;;;;;4947968;28;20043;-77